createdAt,value
2023-02-07T00:01:38.364Z,93.50
2023-02-07T00:04:06.611Z,92.60
2023-02-07T00:06:36.597Z,95.40
2023-02-07T00:09:08.886Z,107.30
2023-02-07T00:11:40.611Z,117.20
2023-02-07T00:14:11.205Z,119.80
2023-02-07T00:16:41.523Z,128.50
2023-02-07T00:19:10.021Z,113.80
2023-02-07T00:21:38.350Z,132.70
2023-02-07T00:24:07.705Z,268.50
2023-02-07T00:26:36.126Z,129.50
2023-02-07T00:29:05.086Z,111.30
2023-02-07T00:31:36.398Z,128.60
2023-02-07T00:34:07.284Z,111.10
2023-02-07T00:36:36.521Z,108.50
2023-02-07T00:39:13.424Z,102.60
2023-02-07T00:41:42.459Z,116.70
2023-02-07T00:44:11.413Z,117.30
2023-02-07T00:46:40.181Z,108.20
2023-02-07T00:49:08.258Z,106.60
2023-02-07T00:51:37.351Z,106.60
2023-02-07T00:54:06.429Z,100.60
2023-02-07T00:56:35.068Z,96.60
2023-02-07T00:59:03.906Z,108.40
2023-02-07T01:01:32.112Z,97.90
2023-02-07T01:04:00.344Z,108.50
2023-02-07T01:06:33.537Z,108.10
2023-02-07T01:09:03.504Z,97.50
2023-02-07T01:11:32.124Z,100.90
2023-02-07T01:14:01.732Z,103.70
2023-02-07T01:16:34.158Z,105.80
2023-02-07T01:19:09.094Z,107.40
2023-02-07T01:21:37.833Z,99.90
2023-02-07T01:24:07.806Z,116.90
2023-02-07T01:26:38.672Z,111.10
2023-02-07T01:29:07.388Z,97.30
2023-02-07T01:31:36.316Z,110.00
2023-02-07T01:34:05.745Z,107.30
2023-02-07T01:36:33.934Z,110.90
2023-02-07T01:39:03.872Z,115.10
2023-02-07T01:41:35.562Z,104.70
2023-02-07T01:44:27.738Z,106.20
2023-02-07T01:46:56.877Z,105.10
2023-02-07T01:49:31.140Z,111.30
2023-02-07T01:52:06.118Z,97.80
2023-02-07T01:54:36.501Z,103.20
2023-02-07T01:57:12.572Z,89.70
2023-02-07T01:59:43.978Z,90.10
2023-02-07T02:02:15.368Z,90.60
2023-02-07T02:04:43.322Z,101.70
2023-02-07T02:07:14.114Z,94.90
2023-02-07T02:09:42.097Z,91.80
2023-02-07T02:12:56.883Z,102.60
2023-02-07T02:15:48.076Z,78.80
2023-02-07T02:18:26.197Z,96.90
2023-02-07T02:21:32.960Z,86.90
2023-02-07T02:24:39.404Z,79.40
2023-02-07T02:27:32.375Z,74.50
2023-02-07T02:30:40.940Z,71.80
2023-02-07T02:33:42.417Z,71.20
2023-02-07T02:36:29.979Z,82.30
2023-02-07T02:39:03.576Z,78.60
2023-02-07T02:41:49.356Z,78.00
2023-02-07T02:44:27.802Z,79.80
2023-02-07T02:46:57.980Z,76.20
2023-02-07T02:49:26.659Z,63.70
2023-02-07T02:51:54.741Z,82.70
2023-02-07T02:54:36.542Z,80.60
2023-02-07T02:57:49.651Z,73.60
2023-02-07T03:00:44.066Z,78.80
2023-02-07T03:03:57.568Z,75.40
2023-02-07T03:06:52.592Z,70.40
2023-02-07T03:09:55.194Z,82.10
2023-02-07T03:12:41.652Z,74.70
2023-02-07T03:15:30.654Z,76.70
2023-02-07T03:18:15.420Z,85.10
2023-02-07T03:21:31.553Z,78.10
2023-02-07T03:24:05.081Z,71.90
2023-02-07T03:26:36.703Z,71.60
2023-02-07T03:29:07.597Z,72.80
2023-02-07T03:31:42.755Z,65.90
2023-02-07T03:34:26.202Z,68.20
2023-02-07T03:37:10.565Z,79.00
2023-02-07T03:39:39.505Z,79.10
2023-02-07T03:42:17.040Z,76.50
2023-02-07T03:44:46.755Z,75.20
2023-02-07T03:47:18.199Z,73.50
2023-02-07T03:49:46.320Z,81.30
2023-02-07T03:52:14.217Z,71.80
2023-02-07T03:54:42.261Z,76.50
2023-02-07T03:57:10.378Z,74.80
2023-02-07T03:59:38.715Z,80.00
2023-02-07T04:02:07.004Z,63.60
2023-02-07T04:04:35.281Z,81.80
2023-02-07T04:07:03.600Z,87.10
2023-02-07T04:09:31.706Z,85.80
2023-02-07T04:11:59.770Z,80.50
2023-02-07T04:14:27.884Z,81.80
2023-02-07T04:16:55.856Z,74.50
2023-02-07T04:19:24.185Z,74.40
2023-02-07T04:21:52.235Z,82.90
2023-02-07T04:24:20.208Z,80.90
2023-02-07T04:26:48.228Z,68.40
2023-02-07T04:29:16.623Z,69.10
2023-02-07T04:31:44.668Z,73.00
2023-02-07T04:34:13.142Z,77.70
2023-02-07T04:36:41.159Z,71.20
2023-02-07T04:39:09.098Z,68.00
2023-02-07T04:41:37.074Z,82.90
2023-02-07T04:44:05.248Z,72.90
2023-02-07T04:46:34.204Z,72.20
2023-02-07T04:49:04.025Z,70.20
2023-02-07T04:51:32.577Z,67.60
2023-02-07T04:54:00.542Z,66.80
2023-02-07T04:56:28.525Z,58.00
2023-02-07T04:58:56.651Z,35.50
2023-02-07T05:01:27.428Z,59.90
2023-02-07T05:03:55.447Z,63.10
2023-02-07T05:06:23.569Z,59.10
2023-02-07T05:08:51.544Z,65.50
2023-02-07T05:11:19.935Z,59.80
2023-02-07T05:13:47.914Z,65.20
2023-02-07T05:16:16.152Z,56.30
2023-02-07T05:18:44.760Z,60.20
2023-02-07T05:21:12.702Z,69.00
2023-02-07T05:23:40.698Z,50.90
2023-02-07T05:26:08.832Z,57.50
2023-02-07T05:28:36.841Z,52.20
2023-02-07T05:31:05.122Z,67.20
2023-02-07T05:33:33.123Z,61.50
2023-02-07T05:36:02.858Z,53.50
2023-02-07T05:38:31.092Z,75.90
2023-02-07T05:40:59.869Z,39.60
2023-02-07T05:43:27.887Z,58.30
2023-02-07T05:45:55.957Z,69.30
2023-02-07T05:48:24.056Z,61.10
2023-02-07T05:50:53.312Z,65.00
2023-02-07T05:53:21.463Z,51.30
2023-02-07T05:55:52.529Z,56.70
2023-02-07T05:58:20.450Z,58.70
2023-02-07T06:00:48.991Z,38.80
2023-02-07T06:03:17.239Z,55.30
2023-02-07T06:05:45.252Z,54.70
2023-02-07T06:08:13.408Z,51.40
2023-02-07T06:10:41.430Z,53.60
2023-02-07T06:13:11.594Z,49.90
2023-02-07T06:15:39.898Z,54.70
2023-02-07T06:18:08.185Z,75.00
2023-02-07T06:20:36.253Z,48.40
2023-02-07T06:23:04.320Z,70.90
2023-02-07T06:25:32.396Z,42.60
2023-02-07T06:28:00.937Z,46.10
2023-02-07T06:30:29.146Z,40.10
2023-02-07T06:32:57.201Z,45.90
2023-02-07T06:35:26.411Z,40.10
2023-02-07T06:37:55.254Z,49.60
2023-02-07T06:40:23.458Z,38.30
2023-02-07T06:42:51.499Z,54.60
2023-02-07T06:45:19.616Z,40.00
2023-02-07T06:47:47.565Z,43.90
2023-02-07T06:50:15.851Z,51.40
2023-02-07T06:52:44.632Z,50.90
2023-02-07T06:55:12.589Z,59.40
2023-02-07T06:57:40.606Z,43.80
2023-02-07T07:00:12.275Z,55.00
2023-02-07T07:02:40.248Z,42.00
2023-02-07T07:05:09.312Z,46.00
2023-02-07T07:07:37.307Z,46.20
2023-02-07T07:10:06.801Z,56.30
2023-02-07T07:12:34.849Z,52.10
2023-02-07T07:15:03.147Z,49.60
2023-02-07T07:17:31.097Z,52.50
2023-02-07T07:19:59.810Z,51.70
2023-02-07T07:22:27.756Z,56.70
2023-02-07T07:24:55.996Z,50.90
2023-02-07T07:27:23.921Z,54.00
2023-02-07T07:29:52.173Z,60.30
2023-02-07T07:35:08.428Z,45.30
2023-02-07T07:37:36.611Z,47.30
2023-02-07T07:40:05.531Z,46.70
2023-02-07T07:42:35.326Z,44.50
2023-02-07T07:45:11.008Z,49.50
2023-02-07T07:47:39.964Z,54.70
2023-02-07T07:50:08.437Z,58.30
2023-02-07T07:52:36.513Z,51.10
2023-02-07T07:55:04.954Z,75.70
2023-02-07T07:57:32.975Z,83.80
2023-02-07T08:00:01.028Z,90.90
2023-02-07T08:02:29.331Z,69.10
2023-02-07T08:04:57.315Z,66.80
2023-02-07T08:07:25.330Z,67.80
2023-02-07T08:09:53.270Z,55.10
2023-02-07T08:12:21.447Z,44.70
2023-02-07T08:14:49.516Z,49.30
2023-02-07T08:17:17.702Z,45.80
2023-02-07T08:19:45.630Z,42.10
2023-02-07T08:22:14.625Z,38.60
2023-02-07T08:24:42.735Z,35.70
2023-02-07T08:27:10.833Z,37.80
2023-02-07T08:29:39.100Z,37.00
2023-02-07T08:32:07.184Z,36.50
2023-02-07T08:34:37.748Z,39.60
2023-02-07T08:37:08.502Z,41.30
2023-02-07T08:39:36.666Z,44.10
2023-02-07T08:42:08.050Z,45.60
2023-02-07T08:44:37.273Z,47.10
2023-02-07T08:47:05.423Z,47.10
2023-02-07T08:49:33.579Z,44.60
2023-02-07T08:52:01.700Z,46.40
2023-02-07T08:54:29.806Z,49.20
2023-02-07T08:56:57.789Z,44.70
2023-02-07T08:59:25.942Z,48.80
2023-02-07T09:01:55.065Z,41.20
2023-02-07T09:04:23.164Z,46.70
2023-02-07T09:06:51.136Z,40.80
2023-02-07T09:09:19.396Z,36.90
2023-02-07T09:11:47.516Z,23.80
2023-02-07T09:14:15.557Z,43.50
2023-02-07T09:16:43.600Z,38.30
2023-02-07T09:19:11.754Z,37.50
2023-02-07T09:21:39.803Z,38.70
2023-02-07T09:24:07.921Z,33.50
2023-02-07T09:26:36.337Z,35.90
2023-02-07T09:29:06.144Z,36.70
2023-02-07T09:31:34.931Z,38.40
2023-02-07T09:34:04.864Z,35.70
2023-02-07T09:36:33.168Z,31.80
2023-02-07T09:39:01.838Z,29.00
2023-02-07T09:42:07.448Z,38.70
2023-02-07T09:45:12.363Z,41.70
2023-02-07T09:47:44.102Z,32.50
2023-02-07T09:50:23.078Z,39.40
2023-02-07T09:53:05.616Z,39.10
2023-02-07T09:55:53.004Z,40.50
2023-02-07T09:58:57.671Z,40.90
2023-02-07T10:01:33.515Z,38.20
2023-02-07T10:04:04.521Z,39.60
2023-02-07T10:06:34.912Z,42.50
2023-02-07T10:09:03.358Z,39.20
2023-02-07T10:11:58.442Z,36.40
2023-02-07T10:15:06.723Z,37.80
2023-02-07T10:18:12.244Z,41.60
2023-02-07T10:21:01.675Z,33.80
2023-02-07T10:23:44.933Z,43.20
2023-02-07T10:26:45.232Z,41.50
2023-02-07T10:29:38.304Z,38.10
2023-02-07T10:32:38.512Z,45.00
2023-02-07T10:35:32.088Z,40.60
2023-02-07T10:38:04.437Z,41.20
2023-02-07T10:40:52.713Z,44.20
2023-02-07T10:43:32.601Z,37.50
2023-02-07T10:46:10.298Z,45.10
2023-02-07T10:48:38.924Z,45.90
2023-02-07T10:51:35.717Z,41.00
2023-02-07T10:54:16.362Z,42.80
2023-02-07T10:56:50.432Z,33.00
2023-02-07T10:59:47.522Z,34.40
2023-02-07T11:02:31.815Z,35.10
2023-02-07T11:05:23.636Z,29.70
2023-02-07T11:07:59.898Z,29.90
2023-02-07T11:10:38.799Z,31.40
2023-02-07T11:13:18.313Z,32.70
2023-02-07T11:16:07.782Z,39.50
2023-02-07T11:18:46.761Z,40.50
2023-02-07T11:21:33.653Z,33.60
2023-02-07T11:24:29.272Z,37.10
2023-02-07T11:27:23.772Z,34.20
2023-02-07T11:29:56.550Z,35.90
2023-02-07T11:32:28.709Z,32.30
2023-02-07T11:35:18.999Z,36.30
2023-02-07T11:37:59.988Z,30.90
2023-02-07T11:40:44.756Z,32.90
2023-02-07T11:43:17.269Z,30.10
2023-02-07T11:45:57.628Z,28.20
2023-02-07T11:48:32.730Z,25.20
2023-02-07T11:51:07.848Z,20.20
2023-02-07T11:54:10.339Z,28.10
2023-02-07T11:56:45.943Z,20.60
2023-02-07T11:59:26.640Z,23.60
2023-02-07T12:02:09.354Z,20.30
2023-02-07T12:05:32.240Z,21.70
2023-02-07T12:08:10.357Z,27.00
2023-02-07T12:10:44.580Z,20.70
2023-02-07T12:13:22.665Z,24.10
2023-02-07T12:15:58.382Z,21.20
2023-02-07T12:18:53.549Z,23.00
2023-02-07T12:21:53.545Z,26.70
2023-02-07T12:24:59.849Z,14.70
2023-02-07T12:27:39.390Z,20.30
2023-02-07T12:30:39.394Z,15.80
2023-02-07T12:33:18.582Z,17.10
2023-02-07T12:36:23.581Z,18.00
2023-02-07T12:39:03.869Z,17.20
2023-02-07T12:41:50.451Z,17.70
2023-02-07T12:44:35.997Z,17.10
2023-02-07T12:47:26.354Z,22.60
2023-02-07T12:50:21.702Z,18.80
2023-02-07T12:53:12.639Z,17.50
2023-02-07T12:55:59.859Z,14.70
2023-02-07T12:58:44.136Z,13.80
2023-02-07T13:01:19.543Z,22.20
2023-02-07T13:04:24.172Z,15.80
2023-02-07T13:07:28.377Z,15.70
2023-02-07T13:10:41.816Z,14.60
2023-02-07T13:13:31.017Z,17.70
2023-02-07T13:16:11.880Z,14.90
2023-02-07T13:18:50.985Z,11.60
2023-02-07T13:21:40.881Z,11.00
2023-02-07T13:24:15.560Z,8.40
2023-02-07T13:26:54.436Z,9.90
2023-02-07T13:29:23.829Z,10.80
2023-02-07T13:32:03.610Z,15.10
2023-02-07T13:34:49.806Z,9.20
2023-02-07T13:37:19.273Z,10.20
2023-02-07T13:40:01.602Z,10.10
2023-02-07T13:42:54.858Z,8.50
2023-02-07T13:48:49.728Z,15.30
2023-02-07T13:51:43.943Z,14.00
2023-02-07T13:54:42.808Z,12.50
2023-02-07T13:57:54.665Z,15.50
2023-02-07T14:00:27.861Z,9.60
2023-02-07T14:03:06.615Z,9.40
2023-02-07T14:05:42.103Z,10.50
2023-02-07T14:08:16.559Z,11.80
2023-02-07T14:10:57.503Z,10.50
2023-02-07T14:13:36.266Z,9.00
2023-02-07T14:16:12.624Z,11.60
2023-02-07T14:18:53.440Z,10.20
2023-02-07T14:21:22.773Z,18.70
2023-02-07T14:24:09.274Z,12.70
2023-02-07T14:26:40.121Z,9.30
2023-02-07T14:29:20.335Z,15.00
2023-02-07T14:32:30.912Z,15.20
2023-02-07T14:35:25.565Z,11.80
2023-02-07T14:38:02.380Z,11.70
2023-02-07T14:40:42.146Z,17.70
2023-02-07T14:43:12.744Z,12.20
2023-02-07T14:45:51.951Z,13.20
2023-02-07T14:49:43.191Z,21.60
2023-02-07T14:52:23.894Z,15.20
2023-02-07T14:55:01.033Z,18.50
2023-02-07T14:57:37.787Z,14.00
2023-02-07T15:00:15.188Z,18.40
2023-02-07T15:02:51.402Z,14.20
2023-02-07T15:05:27.924Z,15.30
2023-02-07T15:08:23.706Z,16.40
2023-02-07T15:10:57.777Z,19.40
2023-02-07T15:13:48.675Z,17.10
2023-02-07T15:16:28.468Z,14.40
2023-02-07T15:19:05.595Z,12.40
2023-02-07T15:21:42.122Z,15.20
2023-02-07T15:24:50.526Z,19.40
2023-02-07T15:27:26.774Z,19.40
2023-02-07T15:29:57.803Z,18.60
2023-02-07T15:32:34.250Z,19.60
2023-02-07T15:35:22.202Z,17.50
2023-02-07T15:37:50.745Z,17.90
2023-02-07T15:40:24.928Z,21.10
2023-02-07T15:42:58.701Z,20.50
2023-02-07T15:45:33.027Z,16.30
2023-02-07T15:48:07.713Z,19.90
2023-02-07T15:50:38.028Z,19.70
2023-02-07T15:53:08.685Z,20.50
2023-02-07T15:55:46.742Z,17.30
2023-02-07T15:58:34.738Z,22.60
2023-02-07T16:01:15.937Z,16.20
2023-02-07T16:03:47.363Z,24.40
2023-02-07T16:06:30.880Z,19.90
2023-02-07T16:09:02.106Z,22.60
2023-02-07T16:11:30.550Z,24.90
2023-02-07T16:14:25.610Z,22.30
2023-02-07T16:16:56.911Z,24.30
2023-02-07T16:19:31.089Z,25.20
2023-02-07T16:22:10.900Z,25.60
2023-02-07T16:24:43.493Z,23.80
2023-02-07T16:27:19.446Z,25.70
2023-02-07T16:29:48.149Z,19.80
2023-02-07T16:32:17.013Z,26.40
2023-02-07T16:34:59.024Z,22.50
2023-02-07T16:37:28.818Z,24.70
2023-02-07T16:39:56.984Z,25.30
2023-02-07T16:42:24.982Z,28.10
2023-02-07T16:44:53.748Z,29.00
2023-02-07T16:47:23.390Z,25.20
2023-02-07T16:49:51.526Z,26.80
2023-02-07T16:52:19.689Z,26.90
2023-02-07T16:54:47.758Z,22.10
2023-02-07T16:57:16.860Z,27.80
2023-02-07T16:59:44.973Z,30.30
2023-02-07T17:02:16.554Z,29.40
2023-02-07T17:04:44.883Z,34.20
2023-02-07T17:07:12.956Z,26.60
2023-02-07T17:09:42.872Z,38.90
2023-02-07T17:12:14.384Z,36.20
2023-02-07T17:14:45.074Z,31.00
2023-02-07T17:17:16.059Z,39.80
2023-02-07T17:19:47.424Z,31.60
2023-02-07T17:22:15.390Z,33.60
2023-02-07T17:24:43.457Z,32.40
2023-02-07T17:27:11.517Z,40.00
2023-02-07T17:29:39.695Z,33.50
2023-02-07T17:32:09.602Z,36.30
2023-02-07T17:34:37.582Z,39.10
2023-02-07T17:37:05.739Z,38.40
2023-02-07T17:39:33.728Z,37.00
2023-02-07T17:42:01.657Z,38.00
2023-02-07T17:44:29.918Z,48.20
2023-02-07T17:46:58.144Z,46.30
2023-02-07T17:49:26.056Z,44.40
2023-02-07T17:51:53.998Z,49.30
2023-02-07T17:54:22.142Z,51.20
2023-02-07T17:56:50.090Z,52.30
2023-02-07T17:59:27.388Z,43.10
2023-02-07T18:01:55.396Z,54.00
2023-02-07T18:04:23.413Z,43.80
2023-02-07T18:06:51.528Z,48.60
2023-02-07T18:09:20.398Z,48.30
2023-02-07T18:11:49.476Z,46.00
2023-02-07T18:14:18.008Z,51.40
2023-02-07T18:16:46.079Z,42.10
2023-02-07T18:19:17.323Z,45.10
2023-02-07T18:21:45.403Z,44.60
2023-02-07T18:24:13.845Z,41.40
2023-02-07T18:26:44.543Z,41.30
2023-02-07T18:29:12.537Z,47.80
2023-02-07T18:31:40.591Z,44.80
2023-02-07T18:34:08.600Z,40.60
2023-02-07T18:36:40.287Z,39.10
2023-02-07T18:39:10.466Z,42.10
2023-02-07T18:41:38.669Z,40.90
2023-02-07T18:44:07.666Z,42.30
2023-02-07T18:46:35.774Z,49.30
2023-02-07T18:49:03.906Z,41.30
2023-02-07T18:51:31.960Z,50.70
2023-02-07T18:53:59.949Z,45.60
2023-02-07T18:56:28.027Z,51.30
2023-02-07T18:58:59.189Z,41.90
2023-02-07T19:01:30.272Z,48.60
2023-02-07T19:04:01.520Z,45.40
2023-02-07T19:06:34.051Z,191.50
2023-02-07T19:09:02.266Z,121.80
2023-02-07T19:11:30.256Z,52.80
2023-02-07T19:13:58.872Z,48.20
2023-02-07T19:16:27.860Z,40.00
2023-02-07T19:18:58.514Z,43.60
2023-02-07T19:21:29.742Z,45.70
2023-02-07T19:23:59.045Z,40.30
2023-02-07T19:26:32.555Z,40.50
2023-02-07T19:29:05.131Z,35.50
2023-02-07T19:31:37.602Z,38.50
2023-02-07T19:34:05.930Z,34.00
2023-02-07T19:36:35.677Z,26.10
2023-02-07T19:39:05.113Z,26.10
2023-02-07T19:41:34.505Z,22.10
2023-02-07T19:44:02.685Z,26.20
2023-02-07T19:46:30.894Z,26.20
2023-02-07T19:48:59.162Z,30.00
2023-02-07T19:51:29.410Z,30.10
2023-02-07T19:53:58.638Z,29.00
2023-02-07T19:56:33.185Z,39.70
2023-02-07T19:59:04.875Z,27.80
2023-02-07T20:01:35.456Z,35.00
2023-02-07T20:04:04.394Z,32.60
2023-02-07T20:06:34.659Z,38.00
2023-02-07T20:09:06.214Z,31.20
2023-02-07T20:11:35.029Z,41.10
2023-02-07T20:14:04.000Z,51.50
2023-02-07T20:16:36.773Z,33.20
2023-02-07T20:21:36.990Z,51.40
2023-02-07T20:24:06.117Z,78.50
2023-02-07T20:26:40.536Z,39.80
2023-02-07T20:29:13.178Z,40.00
2023-02-07T20:31:43.154Z,37.20
2023-02-07T20:34:12.229Z,35.80
2023-02-07T20:36:42.341Z,46.70
2023-02-07T20:39:22.465Z,61.00
2023-02-07T20:41:50.980Z,34.20
2023-02-07T20:44:26.594Z,32.50
2023-02-07T20:46:58.086Z,41.30
2023-02-07T20:49:30.277Z,42.80
2023-02-07T20:52:00.300Z,32.60
2023-02-07T20:54:30.824Z,39.60
2023-02-07T20:56:59.057Z,30.10
2023-02-07T20:59:32.661Z,34.90
2023-02-07T21:02:01.948Z,34.40
2023-02-07T21:04:30.297Z,35.80
2023-02-07T21:06:58.510Z,31.60
2023-02-07T21:09:26.751Z,38.00
2023-02-07T21:11:54.976Z,32.60
2023-02-07T21:14:30.154Z,37.20
2023-02-07T21:17:05.871Z,39.90
2023-02-07T21:19:38.749Z,32.60
2023-02-07T21:22:07.662Z,32.40
2023-02-07T21:24:35.912Z,37.50
2023-02-07T21:27:05.143Z,28.50
2023-02-07T21:29:35.239Z,33.20
2023-02-07T21:32:03.338Z,34.70
2023-02-07T21:34:31.443Z,34.40
2023-02-07T21:36:59.392Z,31.50
2023-02-07T21:39:27.346Z,34.40
2023-02-07T21:41:55.614Z,30.90
2023-02-07T21:44:23.536Z,36.50
2023-02-07T21:46:52.192Z,25.00
2023-02-07T21:49:20.908Z,30.00
2023-02-07T21:51:51.149Z,28.60
2023-02-07T21:54:19.542Z,29.30
2023-02-07T21:56:49.684Z,25.90
2023-02-07T21:59:20.352Z,26.10
2023-02-07T22:01:48.559Z,23.80
2023-02-07T22:04:17.734Z,22.10
2023-02-07T22:06:47.972Z,24.20
2023-02-07T22:09:18.801Z,102.40
2023-02-07T22:11:46.937Z,90.40
2023-02-07T22:14:16.227Z,28.40
2023-02-07T22:16:44.357Z,28.10
2023-02-07T22:19:14.403Z,25.60
2023-02-07T22:21:44.204Z,23.90
2023-02-07T22:24:15.004Z,23.70
2023-02-07T22:26:44.119Z,27.50
2023-02-07T22:29:12.295Z,34.20
2023-02-07T22:31:41.951Z,35.10
2023-02-07T22:34:12.877Z,23.80
2023-02-07T22:36:43.655Z,23.70
2023-02-07T22:39:14.667Z,29.60
2023-02-07T22:41:43.094Z,25.50
2023-02-07T22:44:11.380Z,28.80
2023-02-07T22:46:39.555Z,29.50
2023-02-07T22:49:07.543Z,28.90
2023-02-07T22:51:37.638Z,28.50
2023-02-07T22:54:16.928Z,26.00
2023-02-07T22:56:46.202Z,111.20
2023-02-07T22:59:14.486Z,43.30
2023-02-07T23:01:44.326Z,29.50
2023-02-07T23:04:17.581Z,25.80
2023-02-07T23:06:47.023Z,33.20
2023-02-07T23:09:16.320Z,29.50
2023-02-07T23:11:45.372Z,22.50
2023-02-07T23:14:13.638Z,23.20
2023-02-07T23:16:42.167Z,23.70
2023-02-07T23:19:16.470Z,28.60
2023-02-07T23:21:44.533Z,28.20
2023-02-07T23:24:12.600Z,27.70
2023-02-07T23:26:40.739Z,31.00
2023-02-07T23:29:08.966Z,30.40
2023-02-07T23:31:37.217Z,32.70
2023-02-07T23:34:05.314Z,27.40
2023-02-07T23:36:33.283Z,26.30
2023-02-07T23:39:01.395Z,95.60
2023-02-07T23:41:30.034Z,26.90
2023-02-07T23:44:00.200Z,60.70
2023-02-07T23:46:29.772Z,47.40
2023-02-07T23:48:58.689Z,34.90
2023-02-07T23:51:27.170Z,101.40
2023-02-07T23:53:55.240Z,52.50
2023-02-07T23:56:24.083Z,29.10
2023-02-07T23:58:53.281Z,27.90
